createdAt,value
2022-10-10T00:00:14.755Z,95498.53
2022-10-10T00:01:11.675Z,95483.50
2022-10-10T00:02:08.977Z,95326.59
2022-10-10T00:03:07.246Z,95471.09
2022-10-10T00:04:05.716Z,95437.13
2022-10-10T00:05:02.454Z,95471.16
2022-10-10T00:05:59.169Z,95470.34
2022-10-10T00:06:55.982Z,95487.78
2022-10-10T00:07:52.781Z,95488.78
2022-10-10T00:08:50.163Z,95473.94
2022-10-10T00:09:47.538Z,95495.25
2022-10-10T00:10:44.212Z,95485.59
2022-10-10T00:11:40.925Z,95483.00
2022-10-10T00:12:37.633Z,95495.41
2022-10-10T00:13:35.241Z,95494.72
2022-10-10T00:14:32.653Z,95490.13
2022-10-10T00:15:29.471Z,95361.94
2022-10-10T00:16:26.376Z,95475.38
2022-10-10T00:17:23.116Z,95479.63
2022-10-10T00:18:19.856Z,95521.06
2022-10-10T00:19:16.591Z,95493.59
2022-10-10T00:20:15.919Z,95477.34
2022-10-10T00:21:12.694Z,95472.22
2022-10-10T00:22:09.409Z,95371.19
2022-10-10T00:23:06.105Z,95425.78
2022-10-10T00:24:02.944Z,95480.50
2022-10-10T00:24:59.647Z,95491.91
2022-10-10T00:25:56.320Z,95411.75
2022-10-10T00:26:52.999Z,95466.00
2022-10-10T00:27:49.672Z,95506.94
2022-10-10T00:28:47.266Z,95447.78
2022-10-10T00:29:43.991Z,95481.81
2022-10-10T00:30:40.913Z,95502.59
2022-10-10T00:31:37.790Z,95481.66
2022-10-10T00:32:35.938Z,95461.66
2022-10-10T00:33:32.620Z,95353.84
2022-10-10T00:34:29.366Z,95490.31
2022-10-10T00:35:26.966Z,95478.84
2022-10-10T00:36:23.723Z,95462.41
2022-10-10T00:37:20.429Z,95502.59
2022-10-10T00:38:17.122Z,95460.53
2022-10-10T00:39:13.835Z,95318.13
2022-10-10T00:40:11.746Z,95475.13
2022-10-10T00:41:08.983Z,95484.91
2022-10-10T00:42:05.754Z,95491.22
2022-10-10T00:43:02.488Z,95485.72
2022-10-10T00:44:15.597Z,95479.59
2022-10-10T00:45:32.230Z,95482.44
2022-10-10T00:46:28.918Z,95479.22
2022-10-10T00:47:25.654Z,95457.75
2022-10-10T00:48:35.351Z,95474.75
2022-10-10T00:49:32.299Z,95373.84
2022-10-10T00:50:33.402Z,95479.69
2022-10-10T00:51:31.073Z,95451.78
2022-10-10T00:52:27.802Z,95459.31
2022-10-10T00:53:30.757Z,95494.78
2022-10-10T00:54:28.714Z,95456.91
2022-10-10T00:55:26.262Z,95472.50
2022-10-10T00:56:29.531Z,95423.22
2022-10-10T00:57:26.292Z,95483.75
2022-10-10T00:58:24.537Z,95493.13
2022-10-10T00:59:22.026Z,95372.69
2022-10-10T01:00:18.928Z,95480.16
2022-10-10T01:01:16.372Z,95479.34
2022-10-10T01:02:13.159Z,95456.28
2022-10-10T01:03:09.995Z,95461.00
2022-10-10T01:04:07.202Z,95468.63
2022-10-10T01:05:05.138Z,95484.03
2022-10-10T01:06:02.318Z,95504.50
2022-10-10T01:07:01.705Z,95469.16
2022-10-10T01:08:00.306Z,95343.09
2022-10-10T01:08:57.664Z,95459.69
2022-10-10T01:10:00.209Z,95481.59
2022-10-10T01:11:08.926Z,95475.91
2022-10-10T01:12:27.223Z,95464.06
2022-10-10T01:13:41.361Z,95371.22
2022-10-10T01:14:52.757Z,95482.53
2022-10-10T01:15:59.601Z,95478.03
2022-10-10T01:17:02.031Z,95474.03
2022-10-10T01:18:06.257Z,95499.63
2022-10-10T01:19:21.480Z,95485.03
2022-10-10T01:20:32.129Z,95433.63
2022-10-10T01:22:04.127Z,95485.47
2022-10-10T01:23:38.303Z,95502.09
2022-10-10T01:24:53.285Z,95484.63
2022-10-10T01:26:27.458Z,95484.56
2022-10-10T01:27:42.422Z,95520.31
2022-10-10T01:28:46.013Z,95467.06
2022-10-10T01:29:57.947Z,95486.22
2022-10-10T01:30:58.855Z,95470.44
2022-10-10T01:32:04.682Z,95460.00
2022-10-10T01:33:13.398Z,95438.22
2022-10-10T01:34:13.044Z,95487.84
2022-10-10T01:35:15.707Z,95483.66
2022-10-10T01:36:29.242Z,95507.38
2022-10-10T01:37:40.778Z,95429.41
2022-10-10T01:39:06.478Z,95448.19
2022-10-10T01:40:06.511Z,95477.00
2022-10-10T01:41:07.120Z,95486.56
2022-10-10T01:42:14.911Z,95402.91
2022-10-10T01:43:12.789Z,95491.97
2022-10-10T01:44:09.515Z,95486.28
2022-10-10T01:45:06.735Z,95462.59
2022-10-10T01:46:18.707Z,95479.00
2022-10-10T01:47:15.378Z,95493.84
2022-10-10T01:48:12.624Z,95489.38
2022-10-10T01:49:09.939Z,95370.31
2022-10-10T01:50:12.715Z,95490.00
2022-10-10T01:51:15.356Z,95474.19
2022-10-10T01:52:35.550Z,95508.25
2022-10-10T01:53:43.739Z,95472.34
2022-10-10T01:55:25.344Z,95481.00
2022-10-10T01:56:37.196Z,95483.00
2022-10-10T01:58:05.658Z,95468.63
2022-10-10T01:59:02.280Z,95483.06
2022-10-10T02:00:11.336Z,95452.31
2022-10-10T02:01:28.287Z,95476.22
2022-10-10T02:02:53.211Z,95474.97
2022-10-10T02:04:24.086Z,95479.03
2022-10-10T02:05:41.624Z,95492.97
2022-10-10T02:07:09.930Z,95495.56
2022-10-10T02:08:26.500Z,95476.06
2022-10-10T02:09:35.802Z,95443.25
2022-10-10T02:10:57.151Z,95490.44
2022-10-10T02:11:56.558Z,95511.16
2022-10-10T02:12:56.811Z,95495.25
2022-10-10T02:14:02.110Z,95476.22
2022-10-10T02:15:10.641Z,95454.59
2022-10-10T02:16:15.599Z,95455.22
2022-10-10T02:17:15.980Z,95511.75
2022-10-10T02:18:18.096Z,95508.50
2022-10-10T02:19:19.540Z,95383.06
2022-10-10T02:20:21.847Z,95489.94
2022-10-10T02:21:21.095Z,95421.91
2022-10-10T02:22:21.293Z,95458.88
2022-10-10T02:23:21.854Z,95491.44
2022-10-10T02:24:21.399Z,95507.25
2022-10-10T02:25:24.078Z,95462.16
2022-10-10T02:26:23.669Z,95510.59
2022-10-10T02:27:47.035Z,95505.09
2022-10-10T02:28:55.940Z,95495.03
2022-10-10T02:29:56.476Z,95522.00
2022-10-10T02:30:59.539Z,95426.38
2022-10-10T02:32:20.769Z,95492.00
2022-10-10T02:33:27.035Z,95511.50
2022-10-10T02:34:29.822Z,95461.22
2022-10-10T02:35:38.470Z,95342.19
2022-10-10T02:36:36.107Z,95444.25
2022-10-10T02:37:34.343Z,95491.19
2022-10-10T02:38:31.326Z,95523.66
2022-10-10T02:39:34.007Z,95486.78
2022-10-10T02:40:34.457Z,95525.66
2022-10-10T02:41:35.405Z,95514.72
2022-10-10T02:42:52.680Z,95409.81
2022-10-10T02:43:52.182Z,95515.94
2022-10-10T02:44:50.390Z,95455.78
2022-10-10T02:45:47.191Z,95498.31
2022-10-10T02:46:43.909Z,95504.56
2022-10-10T02:47:40.636Z,95358.81
2022-10-10T02:48:37.426Z,95441.81
2022-10-10T02:49:35.363Z,95513.91
2022-10-10T02:50:33.191Z,95509.88
2022-10-10T02:51:30.596Z,95490.63
2022-10-10T02:52:27.513Z,95488.41
2022-10-10T02:53:24.215Z,95487.56
2022-10-10T02:54:20.957Z,95404.75
2022-10-10T02:55:17.692Z,95519.59
2022-10-10T02:56:14.386Z,95508.25
2022-10-10T02:57:11.191Z,95514.72
2022-10-10T02:58:07.926Z,95505.81
2022-10-10T02:59:04.635Z,95524.47
2022-10-10T03:00:01.818Z,95500.09
2022-10-10T03:00:58.620Z,95482.69
2022-10-10T03:01:55.441Z,95384.09
2022-10-10T03:02:52.578Z,95511.47
2022-10-10T03:03:49.640Z,95458.00
2022-10-10T03:04:46.412Z,95442.63
2022-10-10T03:05:43.142Z,95536.63
2022-10-10T03:06:39.903Z,95498.09
2022-10-10T03:07:36.590Z,95524.03
2022-10-10T03:08:33.303Z,95504.16
2022-10-10T03:09:30.302Z,95514.91
2022-10-10T03:10:27.038Z,95483.69
2022-10-10T03:11:23.802Z,95478.88
2022-10-10T03:12:20.489Z,95521.22
2022-10-10T03:13:18.488Z,95510.84
2022-10-10T03:14:15.208Z,95508.63
2022-10-10T03:15:12.301Z,95512.88
2022-10-10T03:16:09.120Z,95538.22
2022-10-10T03:17:05.833Z,95460.03
2022-10-10T03:18:02.517Z,95460.03
2022-10-10T03:18:59.246Z,95496.28
2022-10-10T03:19:55.951Z,95485.16
2022-10-10T03:20:56.478Z,95498.50
2022-10-10T03:21:53.376Z,95520.81
2022-10-10T03:22:50.348Z,95430.03
2022-10-10T03:23:47.180Z,95504.97
2022-10-10T03:24:43.921Z,95408.97
2022-10-10T03:25:42.384Z,95523.84
2022-10-10T03:26:39.094Z,95527.47
2022-10-10T03:27:37.006Z,95330.06
2022-10-10T03:28:33.881Z,95525.66
2022-10-10T03:29:30.641Z,95522.84
2022-10-10T03:30:27.354Z,95519.56
2022-10-10T03:31:24.274Z,95519.16
2022-10-10T03:32:21.400Z,95497.69
2022-10-10T03:33:18.209Z,95568.63
2022-10-10T03:34:14.913Z,95517.97
2022-10-10T03:35:11.663Z,95510.28
2022-10-10T03:36:08.376Z,95481.09
2022-10-10T03:37:05.119Z,95526.47
2022-10-10T03:38:02.594Z,95521.41
2022-10-10T03:38:59.312Z,95461.44
2022-10-10T03:39:56.010Z,95517.16
2022-10-10T03:40:52.926Z,95488.75
2022-10-10T03:41:50.410Z,95553.22
2022-10-10T03:42:47.827Z,95524.00
2022-10-10T03:43:44.808Z,95499.09
2022-10-10T03:44:41.493Z,95509.06
2022-10-10T03:45:39.120Z,95385.91
2022-10-10T03:46:35.926Z,95458.78
2022-10-10T03:47:32.605Z,95520.94
2022-10-10T03:48:29.369Z,95538.03
2022-10-10T03:49:26.071Z,95510.66
2022-10-10T03:50:22.774Z,95530.50
2022-10-10T03:51:19.643Z,95537.81
2022-10-10T03:52:16.511Z,95532.19
2022-10-10T03:53:13.217Z,95531.75
2022-10-10T03:54:10.181Z,95531.59
2022-10-10T03:55:07.368Z,95523.44
2022-10-10T03:56:04.463Z,95520.38
2022-10-10T03:57:01.172Z,95498.09
2022-10-10T03:57:58.064Z,95523.84
2022-10-10T03:58:54.870Z,95429.03
2022-10-10T03:59:51.608Z,95468.53
2022-10-10T04:01:00.332Z,95528.91
2022-10-10T04:01:57.074Z,95491.22
2022-10-10T04:02:53.946Z,95526.06
2022-10-10T04:03:52.303Z,95530.50
2022-10-10T04:04:49.087Z,95508.63
2022-10-10T04:05:45.815Z,95526.06
2022-10-10T04:06:42.550Z,95523.66
2022-10-10T04:07:41.515Z,95520.38
2022-10-10T04:08:38.946Z,95551.78
2022-10-10T04:09:35.691Z,95515.91
2022-10-10T04:10:32.836Z,95421.06
2022-10-10T04:11:29.568Z,95417.81
2022-10-10T04:12:26.262Z,95523.44
2022-10-10T04:13:27.834Z,95538.34
2022-10-10T04:14:24.554Z,95530.50
2022-10-10T04:15:21.592Z,95494.38
2022-10-10T04:16:18.522Z,95520.75
2022-10-10T04:17:15.721Z,95338.78
2022-10-10T04:18:12.408Z,95366.91
2022-10-10T04:19:09.114Z,95509.38
2022-10-10T04:20:06.077Z,95530.41
2022-10-10T04:21:05.135Z,95506.94
2022-10-10T04:22:01.833Z,95494.97
2022-10-10T04:22:58.593Z,95434.00
2022-10-10T04:23:55.420Z,95524.59
2022-10-10T04:24:52.118Z,95539.31
2022-10-10T04:25:52.725Z,95504.66
2022-10-10T04:26:49.427Z,95500.81
2022-10-10T04:27:46.134Z,95538.72
2022-10-10T04:28:42.875Z,95537.25
2022-10-10T04:29:39.622Z,95507.66
2022-10-10T04:30:36.338Z,95535.22
2022-10-10T04:31:33.342Z,95511.19
2022-10-10T04:32:30.039Z,95525.63
2022-10-10T04:33:26.728Z,95505.19
2022-10-10T04:34:23.566Z,95529.94
2022-10-10T04:35:20.269Z,95495.75
2022-10-10T04:36:16.966Z,95447.50
2022-10-10T04:37:13.679Z,95528.69
2022-10-10T04:38:10.375Z,95534.94
2022-10-10T04:39:07.106Z,95545.69
2022-10-10T04:40:04.847Z,95535.19
2022-10-10T04:41:01.647Z,95500.66
2022-10-10T04:41:58.416Z,95501.94
2022-10-10T04:42:56.075Z,95539.56
2022-10-10T04:43:52.776Z,95417.09
2022-10-10T04:44:49.474Z,95466.53
2022-10-10T04:45:46.505Z,95542.75
2022-10-10T04:46:43.210Z,95573.16
2022-10-10T04:47:39.898Z,95547.50
2022-10-10T04:48:37.738Z,95492.13
2022-10-10T04:49:34.434Z,95481.78
2022-10-10T04:50:31.275Z,95552.19
2022-10-10T04:51:28.078Z,95329.63
2022-10-10T04:52:25.163Z,95449.19
2022-10-10T04:53:22.332Z,95446.75
2022-10-10T04:54:19.060Z,95546.84
2022-10-10T04:55:16.100Z,95554.88
2022-10-10T04:56:12.833Z,95526.53
2022-10-10T04:57:09.685Z,95541.25
2022-10-10T04:58:06.438Z,95555.41
2022-10-10T04:59:03.199Z,95553.19
2022-10-10T04:59:59.993Z,95552.94
2022-10-10T05:00:56.772Z,95546.06
2022-10-10T05:01:55.341Z,95571.19
2022-10-10T05:02:55.151Z,95429.78
2022-10-10T05:03:51.948Z,95529.47
2022-10-10T05:04:49.068Z,95561.47
2022-10-10T05:05:45.811Z,95564.25
2022-10-10T05:06:42.690Z,95551.63
2022-10-10T05:07:39.475Z,95516.84
2022-10-10T05:08:36.209Z,95546.19
2022-10-10T05:09:33.826Z,95502.63
2022-10-10T05:10:30.974Z,95560.09
2022-10-10T05:11:27.800Z,95558.69
2022-10-10T05:12:24.868Z,95549.84
2022-10-10T05:13:21.607Z,95567.25
2022-10-10T05:14:18.311Z,95569.22
2022-10-10T05:15:15.124Z,95589.06
2022-10-10T05:16:11.946Z,95561.31
2022-10-10T05:17:09.166Z,95569.63
2022-10-10T05:18:06.430Z,95565.22
2022-10-10T05:19:03.520Z,95390.06
2022-10-10T05:20:00.279Z,95558.09
2022-10-10T05:21:02.572Z,95542.13
2022-10-10T05:22:00.355Z,95538.41
2022-10-10T05:22:57.312Z,95520.09
2022-10-10T05:23:54.589Z,95584.28
2022-10-10T05:24:51.382Z,95576.34
2022-10-10T05:25:50.186Z,95564.44
2022-10-10T05:26:46.918Z,95411.94
2022-10-10T05:27:43.666Z,95580.00
2022-10-10T05:28:40.483Z,95569.44
2022-10-10T05:29:37.268Z,95587.03
2022-10-10T05:30:34.013Z,95572.00
2022-10-10T05:31:30.760Z,95563.53
2022-10-10T05:32:27.506Z,95380.09
2022-10-10T05:33:24.257Z,95538.97
2022-10-10T05:34:21.027Z,95576.13
2022-10-10T05:35:20.278Z,95534.34
2022-10-10T05:36:17.098Z,95530.28
2022-10-10T05:37:14.182Z,95599.31
2022-10-10T05:38:11.186Z,95522.69
2022-10-10T05:39:08.109Z,95591.22
2022-10-10T05:40:05.645Z,95585.13
2022-10-10T05:41:03.228Z,95595.28
2022-10-10T05:41:59.922Z,95584.56
2022-10-10T05:42:56.654Z,95603.41
2022-10-10T05:43:53.349Z,95593.31
2022-10-10T05:44:50.042Z,95610.84
2022-10-10T05:45:46.752Z,95601.81
2022-10-10T05:46:43.567Z,95587.66
2022-10-10T05:47:40.295Z,95593.34
2022-10-10T05:48:37.034Z,95577.72
2022-10-10T05:49:33.812Z,95578.34
2022-10-10T05:50:34.762Z,95590.47
2022-10-10T05:51:31.475Z,95598.19
2022-10-10T05:52:29.278Z,95427.97
2022-10-10T05:53:28.341Z,95577.94
2022-10-10T05:54:25.072Z,95591.75
2022-10-10T05:55:21.798Z,95600.91
2022-10-10T05:56:18.582Z,95445.03
2022-10-10T05:57:16.469Z,95597.00
2022-10-10T05:58:14.043Z,95597.84
2022-10-10T05:59:10.773Z,95530.91
2022-10-10T06:00:07.974Z,95604.31
2022-10-10T06:01:07.050Z,95593.78
2022-10-10T06:02:03.891Z,95380.94
2022-10-10T06:03:00.620Z,95556.69
2022-10-10T06:03:57.428Z,95549.19
2022-10-10T06:04:54.126Z,95613.44
2022-10-10T06:05:52.192Z,95568.44
2022-10-10T06:06:49.446Z,95563.16
2022-10-10T06:08:05.500Z,95577.16
2022-10-10T06:09:03.768Z,95594.81
2022-10-10T06:10:00.495Z,95594.19
2022-10-10T06:11:05.650Z,95504.59
2022-10-10T06:12:02.465Z,95552.84
2022-10-10T06:12:59.157Z,95481.91
2022-10-10T06:13:57.061Z,95536.59
2022-10-10T06:14:53.795Z,95599.81
2022-10-10T06:15:51.287Z,95602.63
2022-10-10T06:16:47.985Z,95615.00
2022-10-10T06:17:44.718Z,95570.63
2022-10-10T06:18:41.430Z,95576.72
2022-10-10T06:19:38.222Z,95641.78
2022-10-10T06:20:39.766Z,95602.13
2022-10-10T06:21:36.528Z,95584.69
2022-10-10T06:22:33.263Z,95605.22
2022-10-10T06:23:30.145Z,95558.81
2022-10-10T06:24:26.853Z,95603.19
2022-10-10T06:25:39.418Z,95605.00
2022-10-10T06:26:37.561Z,95569.00
2022-10-10T06:27:34.271Z,95550.38
2022-10-10T06:28:31.718Z,95558.66
2022-10-10T06:29:28.525Z,95603.91
2022-10-10T06:30:25.370Z,95622.47
2022-10-10T06:31:22.218Z,95626.25
2022-10-10T06:32:18.995Z,95510.97
2022-10-10T06:33:18.651Z,95626.06
2022-10-10T06:34:15.381Z,95608.28
2022-10-10T06:35:12.121Z,95600.56
2022-10-10T06:36:10.009Z,95608.66
2022-10-10T06:37:08.517Z,95607.66
2022-10-10T06:38:05.243Z,95609.53
2022-10-10T06:39:02.083Z,95513.88
2022-10-10T06:39:58.870Z,95630.97
2022-10-10T06:40:59.749Z,95590.88
2022-10-10T06:41:57.241Z,95603.00
2022-10-10T06:42:54.409Z,95525.72
2022-10-10T06:43:51.877Z,95562.38
2022-10-10T06:44:49.246Z,95646.66
2022-10-10T06:45:49.704Z,95604.03
2022-10-10T06:46:46.413Z,95509.34
2022-10-10T06:47:43.119Z,95583.53
2022-10-10T06:48:39.982Z,95535.72
2022-10-10T06:49:36.878Z,95557.56
2022-10-10T06:50:33.805Z,95573.06
2022-10-10T06:51:30.921Z,95564.50
2022-10-10T06:52:27.631Z,95633.06
2022-10-10T06:53:44.647Z,95624.91
2022-10-10T06:54:59.626Z,95627.78
2022-10-10T06:56:24.954Z,95624.47
2022-10-10T06:57:42.954Z,95623.09
2022-10-10T06:58:39.606Z,95625.78
2022-10-10T06:59:36.475Z,95626.53
2022-10-10T07:00:33.245Z,95631.06
2022-10-10T07:01:30.001Z,95637.47
2022-10-10T07:02:27.265Z,95632.38
2022-10-10T07:03:24.331Z,95626.97
2022-10-10T07:04:21.033Z,95630.94
2022-10-10T07:05:18.635Z,95582.28
2022-10-10T07:06:17.990Z,95622.97
2022-10-10T07:07:14.687Z,95635.47
2022-10-10T07:08:11.409Z,95643.22
2022-10-10T07:09:08.190Z,95467.03
2022-10-10T07:10:05.744Z,95627.72
2022-10-10T07:11:02.679Z,95603.72
2022-10-10T07:11:59.374Z,95602.31
2022-10-10T07:12:56.257Z,95620.41
2022-10-10T07:13:54.173Z,95575.28
2022-10-10T07:14:50.872Z,95531.56
2022-10-10T07:15:48.117Z,95611.03
2022-10-10T07:16:44.847Z,95635.59
2022-10-10T07:17:41.633Z,95638.63
2022-10-10T07:18:38.797Z,95636.88
2022-10-10T07:19:37.792Z,95623.84
2022-10-10T07:20:35.374Z,95640.03
2022-10-10T07:21:32.488Z,95617.03
2022-10-10T07:22:29.215Z,95662.50
2022-10-10T07:23:27.248Z,95636.81
2022-10-10T07:24:24.097Z,95637.09
2022-10-10T07:25:20.879Z,95603.19
2022-10-10T07:26:20.990Z,95639.81
2022-10-10T07:27:17.915Z,95648.88
2022-10-10T07:28:14.875Z,95611.59
2022-10-10T07:29:11.611Z,95606.72
2022-10-10T07:30:08.963Z,95642.41
2022-10-10T07:31:09.336Z,95567.50
2022-10-10T07:32:06.014Z,95578.25
2022-10-10T07:33:02.721Z,95616.94
2022-10-10T07:33:59.435Z,95636.19
2022-10-10T07:34:58.349Z,95622.94
2022-10-10T07:35:55.067Z,95627.41
2022-10-10T07:36:51.861Z,95620.53
2022-10-10T07:37:49.061Z,95629.38
2022-10-10T07:38:51.781Z,95623.63
2022-10-10T07:39:48.505Z,95631.22
2022-10-10T07:40:45.206Z,95626.59
2022-10-10T07:41:41.992Z,95628.34
2022-10-10T07:42:38.944Z,95613.47
2022-10-10T07:43:37.616Z,95605.75
2022-10-10T07:44:34.905Z,95610.50
2022-10-10T07:45:31.787Z,95630.09
2022-10-10T07:46:30.638Z,95600.56
2022-10-10T07:47:27.419Z,95502.31
2022-10-10T07:48:24.229Z,95606.34
2022-10-10T07:49:20.924Z,95615.81
2022-10-10T07:50:17.741Z,95615.41
2022-10-10T07:51:15.565Z,95579.72
2022-10-10T07:52:12.522Z,95599.47
2022-10-10T07:53:10.529Z,95556.41
2022-10-10T07:54:07.243Z,95564.19
2022-10-10T07:55:05.456Z,95611.72
2022-10-10T07:56:06.426Z,95563.91
2022-10-10T07:57:03.131Z,95604.19
2022-10-10T07:58:02.967Z,95619.69
2022-10-10T07:59:00.929Z,95605.97
2022-10-10T07:59:57.687Z,95542.09
2022-10-10T08:01:02.890Z,95618.66
2022-10-10T08:01:59.976Z,95559.28
2022-10-10T08:02:56.787Z,95617.63
2022-10-10T08:03:56.361Z,95608.72
2022-10-10T08:04:53.066Z,95614.06
2022-10-10T08:05:49.751Z,95620.47
2022-10-10T08:06:46.580Z,95508.72
2022-10-10T08:07:43.311Z,95601.34
2022-10-10T08:08:50.505Z,95609.78
2022-10-10T08:09:48.189Z,95607.91
2022-10-10T08:10:45.025Z,95604.13
2022-10-10T08:11:41.769Z,95560.81
2022-10-10T08:12:38.577Z,95610.13
2022-10-10T08:13:37.423Z,95593.50
2022-10-10T08:14:34.186Z,95605.97
2022-10-10T08:15:33.845Z,95618.19
2022-10-10T08:16:31.264Z,95605.28
2022-10-10T08:17:27.997Z,95580.78
2022-10-10T08:18:24.854Z,95643.97
2022-10-10T08:19:21.718Z,95524.94
2022-10-10T08:20:19.166Z,95596.38
2022-10-10T08:21:18.068Z,95547.91
2022-10-10T08:22:14.827Z,95639.22
2022-10-10T08:23:11.762Z,95610.13
2022-10-10T08:24:09.134Z,95624.91
2022-10-10T08:25:06.543Z,95625.75
2022-10-10T08:26:07.125Z,95550.22
2022-10-10T08:27:03.949Z,95599.38
2022-10-10T08:28:02.029Z,95537.63
2022-10-10T08:28:58.811Z,95619.00
2022-10-10T08:29:55.593Z,95603.66
2022-10-10T08:30:52.313Z,95446.75
2022-10-10T08:31:49.023Z,95608.59
2022-10-10T08:32:45.797Z,95596.66
2022-10-10T08:33:44.243Z,95613.56
2022-10-10T08:34:41.005Z,95576.66
2022-10-10T08:35:40.927Z,95615.91
2022-10-10T08:36:37.656Z,95616.94
2022-10-10T08:37:37.312Z,95518.66
2022-10-10T08:38:34.516Z,95619.22
2022-10-10T08:39:32.150Z,95603.78
2022-10-10T08:40:29.094Z,95621.22
2022-10-10T08:41:40.655Z,95593.38
2022-10-10T08:42:48.880Z,95590.25
2022-10-10T08:43:57.696Z,95597.91
2022-10-10T08:45:02.639Z,95592.25
2022-10-10T08:46:14.618Z,95602.97
2022-10-10T08:47:29.993Z,95637.13
2022-10-10T08:48:31.299Z,95564.19
2022-10-10T08:49:44.802Z,95605.03
2022-10-10T08:50:49.257Z,95613.94
2022-10-10T08:51:54.635Z,95616.78
2022-10-10T08:53:00.948Z,95626.47
2022-10-10T08:54:04.270Z,95619.28
2022-10-10T08:55:04.469Z,95558.88
2022-10-10T08:56:02.478Z,95612.69
2022-10-10T08:57:04.385Z,95630.13
2022-10-10T08:58:18.758Z,95609.13
2022-10-10T08:59:25.850Z,95619.31
2022-10-10T09:00:26.377Z,95617.91
2022-10-10T09:02:18.174Z,95572.22
2022-10-10T09:03:01.066Z,95603.66
2022-10-10T09:04:02.010Z,95614.06
2022-10-10T09:04:58.743Z,95595.03
2022-10-10T09:06:13.742Z,95613.94
2022-10-10T09:07:49.431Z,95607.34
2022-10-10T09:09:08.243Z,95608.00
2022-10-10T09:10:25.962Z,95611.88
2022-10-10T09:11:53.434Z,95588.84
2022-10-10T09:13:02.518Z,95609.72
2022-10-10T09:14:17.322Z,95613.22
2022-10-10T09:15:19.953Z,95605.78
2022-10-10T09:16:54.218Z,95643.25
2022-10-10T09:18:15.053Z,95607.56
2022-10-10T09:19:34.902Z,95604.19
2022-10-10T09:20:51.534Z,95625.63
2022-10-10T09:21:48.633Z,95622.16
2022-10-10T09:23:03.448Z,95617.28
2022-10-10T09:24:12.115Z,95628.72
2022-10-10T09:25:35.777Z,95625.00
2022-10-10T09:26:44.121Z,95616.13
2022-10-10T09:27:47.731Z,95607.31
2022-10-10T09:29:25.984Z,95612.41
2022-10-10T09:30:22.855Z,95629.72
2022-10-10T09:31:42.822Z,95463.81
2022-10-10T09:32:46.201Z,95593.88
2022-10-10T09:34:02.176Z,95475.13
2022-10-10T09:35:22.966Z,95615.22
2022-10-10T09:36:33.744Z,95629.28
2022-10-10T09:37:57.835Z,95616.81
2022-10-10T09:39:01.713Z,95615.66
2022-10-10T09:40:08.213Z,95642.81
2022-10-10T09:41:34.841Z,95591.41
2022-10-10T09:42:37.603Z,95625.28
2022-10-10T09:43:35.298Z,95634.72
2022-10-10T09:44:33.101Z,95656.06
2022-10-10T09:45:44.850Z,95630.81
2022-10-10T09:46:42.042Z,95630.31
2022-10-10T09:47:39.336Z,95626.47
2022-10-10T09:48:41.119Z,95623.25
2022-10-10T09:49:38.164Z,95518.91
2022-10-10T09:50:37.350Z,95628.00
2022-10-10T09:51:36.012Z,95567.06
2022-10-10T09:52:32.751Z,95616.06
2022-10-10T09:53:29.458Z,95634.78
2022-10-10T09:54:26.240Z,95608.63
2022-10-10T09:55:33.832Z,95602.06
2022-10-10T09:56:42.315Z,95600.53
2022-10-10T09:57:42.802Z,95622.78
2022-10-10T09:58:43.603Z,95601.97
2022-10-10T09:59:45.973Z,95602.06
2022-10-10T10:00:42.803Z,95628.34
2022-10-10T10:01:39.576Z,95627.34
2022-10-10T10:02:36.333Z,95619.28
2022-10-10T10:03:33.112Z,95550.50
2022-10-10T10:04:33.529Z,95522.66
2022-10-10T10:05:30.997Z,95617.94
2022-10-10T10:06:27.878Z,95619.16
2022-10-10T10:07:36.401Z,95603.50
2022-10-10T10:08:36.053Z,95611.50
2022-10-10T10:09:33.956Z,95615.03
2022-10-10T10:10:35.885Z,95571.25
2022-10-10T10:11:41.633Z,95624.84
2022-10-10T10:12:41.961Z,95609.53
2022-10-10T10:13:38.769Z,95612.25
2022-10-10T10:14:38.506Z,95605.19
2022-10-10T10:15:35.271Z,95541.50
2022-10-10T10:16:36.048Z,95601.22
2022-10-10T10:17:33.386Z,95573.56
2022-10-10T10:18:31.191Z,95485.97
2022-10-10T10:19:46.207Z,95534.41
2022-10-10T10:20:45.478Z,95559.84
2022-10-10T10:21:51.609Z,95554.88
2022-10-10T10:22:48.416Z,95629.50
2022-10-10T10:23:58.370Z,95599.41
2022-10-10T10:24:55.214Z,95591.78
2022-10-10T10:26:01.272Z,95610.88
2022-10-10T10:27:19.086Z,95579.03
2022-10-10T10:28:20.934Z,95613.84
2022-10-10T10:29:26.889Z,95603.75
2022-10-10T10:30:26.030Z,95595.81
2022-10-10T10:31:45.679Z,95550.75
2022-10-10T10:33:03.050Z,95596.75
2022-10-10T10:34:46.435Z,95566.31
2022-10-10T10:35:54.683Z,95567.38
2022-10-10T10:37:10.411Z,95607.75
2022-10-10T10:38:38.263Z,95581.75
2022-10-10T10:40:07.006Z,95589.72
2022-10-10T10:41:23.798Z,95605.59
2022-10-10T10:42:59.317Z,95578.53
2022-10-10T10:44:05.131Z,95582.59
2022-10-10T10:45:41.269Z,95590.47
2022-10-10T10:47:03.610Z,95563.28
2022-10-10T10:48:21.688Z,95580.31
2022-10-10T10:49:28.479Z,95580.88
2022-10-10T10:50:31.191Z,95484.69
2022-10-10T10:51:27.834Z,95584.91
2022-10-10T10:52:24.561Z,95577.19
2022-10-10T10:53:53.335Z,95585.50
2022-10-10T10:55:02.180Z,95586.63
2022-10-10T10:56:14.358Z,95583.47
2022-10-10T10:57:36.920Z,95570.50
2022-10-10T11:01:22.483Z,95565.81
2022-10-10T11:01:56.971Z,95569.06
2022-10-10T11:03:35.000Z,95553.66
2022-10-10T11:05:17.848Z,95540.22
2022-10-10T11:06:32.945Z,95552.34
2022-10-10T11:08:03.760Z,95567.03
2022-10-10T11:09:03.510Z,95546.47
2022-10-10T11:10:24.672Z,95535.56
2022-10-10T11:11:34.441Z,95547.75
2022-10-10T11:12:40.306Z,95550.78
2022-10-10T11:13:53.634Z,95513.13
2022-10-10T11:15:02.980Z,95405.84
2022-10-10T11:16:43.546Z,95552.00
2022-10-10T11:17:52.723Z,95552.25
2022-10-10T11:19:11.093Z,95557.09
2022-10-10T11:20:22.085Z,95544.47
2022-10-10T11:21:26.945Z,95451.06
2022-10-10T11:22:39.379Z,95554.88
2022-10-10T11:23:45.033Z,95515.47
2022-10-10T11:24:55.754Z,95542.28
2022-10-10T11:26:02.659Z,95561.03
2022-10-10T11:27:07.482Z,95514.94
2022-10-10T11:28:36.806Z,95528.09
2022-10-10T11:29:48.194Z,95555.69
2022-10-10T11:30:54.170Z,95456.31
2022-10-10T11:32:13.177Z,95465.03
2022-10-10T11:33:09.875Z,95522.00
2022-10-10T11:34:32.136Z,95501.66
2022-10-10T11:35:42.558Z,95514.00
2022-10-10T11:36:44.868Z,95533.84
2022-10-10T11:37:48.253Z,95496.59
2022-10-10T11:39:00.125Z,95512.19
2022-10-10T11:40:03.850Z,95513.03
2022-10-10T11:41:13.833Z,95508.31
2022-10-10T11:42:46.049Z,95480.88
2022-10-10T11:43:46.761Z,95510.88
2022-10-10T11:44:56.163Z,95507.84
2022-10-10T11:46:03.241Z,95465.72
2022-10-10T11:47:27.029Z,95504.31
2022-10-10T11:48:37.293Z,95509.63
2022-10-10T11:50:00.380Z,95478.38
2022-10-10T11:51:15.419Z,95518.91
2022-10-10T11:52:34.415Z,95502.84
2022-10-10T11:53:45.939Z,95414.44
2022-10-10T11:55:03.834Z,95496.41
2022-10-10T11:56:29.714Z,95481.69
2022-10-10T11:57:53.468Z,95494.81
2022-10-10T11:59:37.651Z,95462.69
2022-10-10T12:00:40.715Z,95345.00
2022-10-10T12:01:46.702Z,95476.34
2022-10-10T12:02:46.353Z,95410.75
2022-10-10T12:03:43.445Z,95494.91
2022-10-10T12:04:40.552Z,95474.50
2022-10-10T12:05:43.054Z,95479.59
2022-10-10T12:06:47.552Z,95450.09
2022-10-10T12:07:54.174Z,95482.53
2022-10-10T12:08:59.503Z,95485.72
2022-10-10T12:10:15.592Z,95443.41
2022-10-10T12:11:39.609Z,95480.88